createdAt,value
2019-06-20T00:00:49.664Z,7.9
2019-06-20T00:02:49.579Z,7.9
2019-06-20T00:04:49.677Z,8.3
2019-06-20T00:06:49.684Z,7.8
2019-06-20T00:08:49.578Z,8.0
2019-06-20T00:10:49.588Z,8.0
2019-06-20T00:12:59.785Z,8.2
2019-06-20T00:14:49.877Z,7.7
2019-06-20T00:16:50.139Z,7.8
2019-06-20T00:18:50.034Z,8.6
2019-06-20T00:20:50.106Z,7.8
2019-06-20T00:22:50.015Z,7.8
2019-06-20T00:24:49.928Z,8.2
2019-06-20T00:26:50.026Z,7.7
2019-06-20T00:28:49.904Z,7.7
2019-06-20T00:30:49.839Z,7.7
2019-06-20T00:32:49.760Z,7.8
2019-06-20T00:34:49.998Z,7.9
2019-06-20T00:36:51.343Z,8.0
2019-06-20T00:38:50.370Z,8.0
2019-06-20T00:40:50.266Z,7.5
2019-06-20T00:42:50.156Z,7.5
2019-06-20T00:44:50.083Z,7.8
2019-06-20T00:46:50.118Z,7.9
2019-06-20T00:48:50.027Z,7.6
2019-06-20T00:50:49.987Z,7.6
2019-06-20T00:52:50.067Z,7.9
2019-06-20T00:54:49.971Z,7.0
2019-06-20T00:56:49.943Z,6.6
2019-06-20T00:58:49.936Z,7.2
2019-06-20T01:00:49.842Z,7.2
2019-06-20T01:02:49.731Z,6.6
2019-06-20T01:04:49.946Z,5.5
2019-06-20T01:06:49.925Z,6.9
2019-06-20T01:08:49.888Z,6.9
2019-06-20T01:10:49.840Z,8.6
2019-06-20T01:12:49.732Z,6.6
2019-06-20T01:14:49.740Z,6.6
2019-06-20T01:16:49.778Z,6.1
2019-06-20T01:18:49.858Z,6.1
2019-06-20T01:20:49.841Z,6.6
2019-06-20T01:22:49.857Z,7.9
2019-06-20T01:24:49.852Z,4.7
2019-06-20T01:26:49.999Z,8.2
2019-06-20T01:28:50.021Z,8.2
2019-06-20T01:30:50.049Z,3.9
2019-06-20T01:32:50.013Z,3.0
2019-06-20T01:34:50.284Z,5.7
2019-06-20T01:36:50.285Z,7.9
2019-06-20T01:38:50.216Z,7.9
2019-06-20T01:40:50.159Z,10.0
2019-06-20T01:42:50.117Z,7.0
2019-06-20T01:44:50.023Z,4.5
2019-06-20T01:46:50.044Z,5.1
2019-06-20T01:48:50.014Z,5.1
2019-06-20T01:50:49.942Z,5.6
2019-06-20T01:52:49.873Z,5.3
2019-06-20T01:54:49.919Z,5.6
2019-06-20T01:56:49.916Z,6.0
2019-06-20T01:58:49.811Z,6.0
2019-06-20T02:00:49.714Z,6.1
2019-06-20T02:02:49.679Z,6.4
2019-06-20T02:04:50.058Z,6.4
2019-06-20T02:06:50.089Z,8.5
2019-06-20T02:08:49.655Z,8.9
2019-06-20T02:10:49.587Z,7.8
2019-06-20T02:12:49.634Z,12.4
2019-06-20T02:14:49.568Z,9.8
2019-06-20T02:16:49.648Z,9.8
2019-06-20T02:18:49.624Z,9.6
2019-06-20T02:20:49.634Z,13.0
2019-06-20T02:22:49.571Z,13.0
2019-06-20T02:24:49.441Z,10.7
2019-06-20T02:26:49.519Z,12.5
2019-06-20T02:28:50.430Z,13.5
2019-06-20T02:30:50.321Z,12.3
2019-06-20T02:32:50.411Z,12.9
2019-06-20T02:34:49.474Z,14.0
2019-06-20T02:36:49.612Z,14.0
2019-06-20T02:38:49.578Z,14.9
2019-06-20T02:40:49.479Z,14.0
2019-06-20T02:42:50.407Z,14.0
2019-06-20T02:44:50.405Z,15.1
2019-06-20T02:46:50.432Z,15.1
2019-06-20T02:48:50.378Z,13.4
2019-06-20T02:50:50.330Z,11.1
2019-06-20T02:52:50.201Z,14.5
2019-06-20T02:54:50.080Z,12.5
2019-06-20T02:56:50.079Z,12.5
2019-06-20T02:58:49.995Z,17.5
2019-06-20T03:00:49.883Z,16.6
2019-06-20T03:02:50.002Z,14.6
2019-06-20T03:04:50.152Z,14.6
2019-06-20T03:06:50.188Z,14.0
2019-06-20T03:08:50.130Z,12.4
2019-06-20T03:10:50.182Z,13.9
2019-06-20T03:12:50.056Z,12.8
2019-06-20T03:14:50.015Z,12.8
2019-06-20T03:16:50.042Z,14.2
2019-06-20T03:18:50.035Z,15.3
2019-06-20T03:20:49.952Z,15.3
2019-06-20T03:22:49.830Z,15.8
2019-06-20T03:24:49.730Z,15.8
2019-06-20T03:26:49.701Z,16.4
2019-06-20T03:28:49.655Z,14.5
2019-06-20T03:30:49.599Z,14.5
2019-06-20T03:32:49.512Z,13.7
2019-06-20T03:34:49.679Z,14.9
2019-06-20T03:36:49.727Z,17.3
2019-06-20T03:38:49.682Z,17.0
2019-06-20T03:40:49.824Z,17.0
2019-06-20T03:42:49.773Z,15.2
2019-06-20T03:45:01.517Z,15.2
2019-06-20T03:46:49.850Z,15.1
2019-06-20T03:48:49.714Z,15.1
2019-06-20T03:50:49.594Z,13.7
2019-06-20T03:52:49.865Z,13.7
2019-06-20T03:54:49.775Z,13.5
2019-06-20T03:56:49.830Z,14.4
2019-06-20T03:58:49.745Z,14.4
2019-06-20T04:00:49.699Z,13.2
2019-06-20T04:02:49.610Z,13.2
2019-06-20T04:04:49.804Z,12.9
2019-06-20T04:06:49.836Z,14.2
2019-06-20T04:08:49.727Z,14.2
2019-06-20T04:10:49.720Z,12.9
2019-06-20T04:12:49.669Z,12.9
2019-06-20T04:14:49.600Z,13.6
2019-06-20T04:16:49.654Z,14.0
2019-06-20T04:18:49.595Z,15.6
2019-06-20T04:20:49.535Z,14.3
2019-06-20T04:22:49.458Z,14.3
2019-06-20T04:24:50.329Z,14.7
2019-06-20T04:26:50.347Z,15.3
2019-06-20T04:28:50.275Z,15.1
2019-06-20T04:30:49.483Z,15.1
2019-06-20T04:32:50.392Z,15.3
2019-06-20T04:34:49.594Z,16.2
2019-06-20T04:36:49.573Z,15.8
2019-06-20T04:38:49.519Z,16.9
2019-06-20T04:40:50.426Z,16.9
2019-06-20T04:42:50.433Z,15.1
2019-06-20T04:44:50.311Z,13.1
2019-06-20T04:46:50.333Z,13.8
2019-06-20T04:48:49.457Z,13.6
2019-06-20T04:50:50.485Z,13.6
2019-06-20T04:52:50.393Z,12.0
2019-06-20T04:54:49.513Z,14.1
2019-06-20T04:56:49.511Z,14.1
2019-06-20T04:58:49.619Z,10.3
2019-06-20T05:00:49.531Z,10.3
2019-06-20T05:02:49.483Z,10.3
2019-06-20T05:04:49.674Z,10.1
2019-06-20T05:06:49.754Z,9.2
2019-06-20T05:08:49.682Z,9.2
2019-06-20T05:10:49.570Z,10.0
2019-06-20T05:12:49.515Z,8.5
2019-06-20T05:14:50.414Z,9.5
2019-06-20T05:16:49.723Z,9.5
2019-06-20T05:18:49.705Z,11.1
2019-06-20T05:20:49.636Z,11.1
2019-06-20T05:22:49.578Z,11.0
2019-06-20T05:24:49.452Z,10.8
2019-06-20T05:26:49.434Z,10.7
2019-06-20T05:28:49.445Z,10.7
2019-06-20T05:30:49.465Z,9.9
2019-06-20T05:32:50.361Z,9.7
2019-06-20T05:34:49.536Z,10.5
2019-06-20T05:36:49.805Z,9.5
2019-06-20T05:38:49.763Z,9.5
2019-06-20T05:40:49.748Z,8.7
2019-06-20T05:42:49.790Z,9.2
2019-06-20T05:44:49.783Z,9.2
2019-06-20T05:46:49.728Z,9.0
2019-06-20T05:48:49.672Z,9.0
2019-06-20T05:50:49.629Z,9.0
2019-06-20T05:52:49.583Z,8.8
2019-06-20T05:54:49.487Z,8.2
2019-06-20T05:56:49.534Z,8.2
2019-06-20T05:58:50.505Z,8.9
2019-06-20T06:00:49.656Z,9.0
2019-06-20T06:02:49.631Z,9.0
2019-06-20T06:04:49.944Z,9.1
2019-06-20T06:06:49.990Z,9.1
2019-06-20T06:08:49.901Z,8.8
2019-06-20T06:10:49.792Z,8.4
2019-06-20T06:12:49.714Z,9.3
2019-06-20T06:14:49.607Z,9.1
2019-06-20T06:16:49.634Z,9.1
2019-06-20T06:18:49.733Z,9.6
2019-06-20T06:20:49.627Z,8.3
2019-06-20T06:22:49.577Z,8.5
2019-06-20T06:24:49.549Z,9.0
2019-06-20T06:26:49.619Z,9.0
2019-06-20T06:28:49.571Z,8.1
2019-06-20T06:30:49.504Z,6.3
2019-06-20T06:32:49.469Z,7.0
2019-06-20T06:34:49.742Z,7.0
2019-06-20T06:36:49.928Z,6.5
2019-06-20T06:38:49.874Z,6.1
2019-06-20T06:40:49.745Z,5.6
2019-06-20T06:42:49.690Z,5.6
2019-06-20T06:44:49.945Z,5.3
2019-06-20T06:46:54.340Z,6.0
2019-06-20T06:48:49.728Z,4.8
2019-06-20T06:50:49.850Z,4.5
2019-06-20T06:52:49.824Z,3.8
2019-06-20T06:54:49.822Z,3.8
2019-06-20T06:56:49.861Z,3.9
2019-06-20T06:58:49.777Z,3.9
2019-06-20T07:00:49.734Z,3.2
2019-06-20T07:02:49.618Z,3.2
2019-06-20T07:04:49.808Z,3.7
2019-06-20T07:06:50.062Z,3.7
2019-06-20T07:08:49.991Z,5.7
2019-06-20T07:10:49.931Z,5.7
2019-06-20T07:12:49.879Z,3.7
2019-06-20T07:14:49.850Z,3.7
2019-06-20T07:16:59.659Z,4.5
2019-06-20T07:18:49.722Z,5.1
2019-06-20T07:20:49.649Z,4.3
2019-06-20T07:22:49.627Z,4.3
2019-06-20T07:24:49.658Z,3.8
2019-06-20T07:26:49.643Z,5.2
2019-06-20T07:28:51.533Z,4.0
2019-06-20T07:30:49.604Z,4.1
2019-06-20T07:32:49.534Z,4.8
2019-06-20T07:34:49.629Z,4.8
2019-06-20T07:36:49.634Z,3.7
2019-06-20T07:38:49.578Z,7.2
2019-06-20T07:40:49.481Z,4.0
2019-06-20T07:42:50.404Z,3.9
2019-06-20T07:44:50.347Z,3.9
2019-06-20T07:46:49.514Z,3.8
2019-06-20T07:48:50.450Z,3.9
2019-06-20T07:50:49.693Z,3.6
2019-06-20T07:53:01.196Z,3.6
2019-06-20T07:54:49.503Z,3.7
2019-06-20T07:56:49.656Z,3.4
2019-06-20T07:58:49.562Z,3.4
2019-06-20T08:00:49.538Z,3.6
2019-06-20T08:02:49.606Z,3.6
2019-06-20T08:04:49.754Z,4.3
2019-06-20T08:06:49.852Z,3.5
2019-06-20T08:08:49.733Z,4.0
2019-06-20T08:10:49.656Z,3.5
2019-06-20T08:12:49.582Z,3.5
2019-06-20T08:14:49.526Z,3.4
2019-06-20T08:16:49.561Z,3.4
2019-06-20T08:18:49.592Z,4.2
2019-06-20T08:20:49.487Z,4.1
2019-06-20T08:22:50.412Z,4.1
2019-06-20T08:24:50.303Z,4.1
2019-06-20T08:26:50.326Z,5.5
2019-06-20T08:29:04.565Z,4.8
2019-06-20T08:30:50.117Z,3.7
2019-06-20T08:32:50.029Z,3.7
2019-06-20T08:34:50.302Z,3.7
2019-06-20T08:36:50.273Z,4.3
2019-06-20T08:38:50.143Z,3.9
2019-06-20T08:40:50.016Z,4.1
2019-06-20T08:42:49.919Z,4.1
2019-06-20T08:44:49.842Z,4.0
2019-06-20T08:46:49.900Z,3.5
2019-06-20T08:48:49.842Z,3.9
2019-06-20T08:50:49.871Z,3.6
2019-06-20T08:52:49.773Z,3.6
2019-06-20T08:54:49.819Z,4.7
2019-06-20T08:56:49.819Z,4.2
2019-06-20T08:58:49.684Z,3.4
2019-06-20T09:00:49.653Z,3.4
2019-06-20T09:02:49.587Z,3.3
2019-06-20T09:04:49.726Z,3.3
2019-06-20T09:06:50.013Z,2.6
2019-06-20T09:08:50.231Z,2.6
2019-06-20T09:10:50.239Z,2.8
2019-06-20T09:12:50.137Z,2.6
2019-06-20T09:14:50.062Z,3.6
2019-06-20T09:16:50.183Z,2.8
2019-06-20T09:18:50.086Z,2.8
2019-06-20T09:20:50.012Z,4.3
2019-06-20T09:22:49.919Z,2.7
2019-06-20T09:24:49.788Z,3.8
2019-06-20T09:26:51.096Z,4.9
2019-06-20T09:28:50.925Z,4.9
2019-06-20T09:30:50.432Z,2.5
2019-06-20T09:32:52.183Z,2.6
2019-06-20T09:34:51.327Z,2.6
2019-06-20T09:36:51.914Z,2.4
2019-06-20T09:38:50.598Z,2.4
2019-06-20T09:40:51.334Z,2.4
2019-06-20T09:42:51.280Z,3.2
2019-06-20T09:44:51.403Z,2.5
2019-06-20T09:46:50.760Z,2.3
2019-06-20T09:48:50.990Z,2.3
2019-06-20T09:50:51.472Z,3.1
2019-06-20T09:52:51.467Z,2.5
2019-06-20T09:54:51.608Z,2.7
2019-06-20T09:56:52.098Z,3.2
2019-06-20T09:58:51.114Z,3.2
2019-06-20T10:00:50.835Z,3.2
2019-06-20T10:02:50.609Z,2.1
2019-06-20T10:04:50.644Z,2.2
2019-06-20T10:06:50.235Z,2.2
2019-06-20T10:08:50.182Z,2.2
2019-06-20T10:10:50.700Z,2.6
2019-06-20T10:12:49.826Z,2.9
2019-06-20T10:14:51.476Z,2.5
2019-06-20T10:16:50.869Z,4.0
2019-06-20T10:18:50.113Z,4.0
2019-06-20T10:20:51.118Z,3.0
2019-06-20T10:22:50.923Z,2.6
2019-06-20T10:24:51.220Z,2.6
2019-06-20T10:26:51.486Z,2.5
2019-06-20T10:28:49.483Z,3.3
2019-06-20T10:30:50.798Z,3.3
2019-06-20T10:32:50.969Z,5.4
2019-06-20T10:34:50.583Z,2.2
2019-06-20T10:36:50.086Z,2.2
2019-06-20T10:38:50.382Z,3.0
2019-06-20T10:40:50.157Z,2.0
2019-06-20T10:42:50.295Z,2.1
2019-06-20T10:44:50.241Z,2.1
2019-06-20T10:46:49.842Z,2.3
2019-06-20T10:48:50.242Z,2.2
2019-06-20T10:50:50.199Z,2.9
2019-06-20T10:52:50.018Z,1.9
2019-06-20T10:54:49.804Z,1.9
2019-06-20T10:56:51.023Z,2.0
2019-06-20T10:58:50.699Z,2.0
2019-06-20T11:00:50.377Z,2.0
2019-06-20T11:02:51.261Z,2.4
2019-06-20T11:04:50.459Z,2.4
2019-06-20T11:06:50.461Z,4.3
2019-06-20T11:08:50.477Z,4.3
2019-06-20T11:10:50.427Z,2.4
2019-06-20T11:12:54.811Z,2.4
2019-06-20T11:14:50.419Z,1.9
2019-06-20T11:16:49.509Z,2.5
2019-06-20T11:18:50.409Z,2.1
2019-06-20T11:20:50.345Z,3.4
2019-06-20T11:22:50.217Z,2.1
2019-06-20T11:24:50.091Z,2.1
2019-06-20T11:26:50.231Z,1.7
2019-06-20T11:28:50.144Z,2.3
2019-06-20T11:30:55.891Z,2.3
2019-06-20T11:32:49.716Z,2.1
2019-06-20T11:34:49.734Z,2.1
2019-06-20T11:36:49.736Z,4.4
2019-06-20T11:38:49.685Z,2.2
2019-06-20T11:40:49.567Z,2.2
2019-06-20T11:42:49.491Z,2.1
2019-06-20T11:44:50.359Z,2.1
2019-06-20T11:46:50.329Z,2.1
2019-06-20T11:48:50.190Z,2.5
2019-06-20T11:50:50.111Z,2.5
2019-06-20T11:52:50.107Z,1.9
2019-06-20T11:54:50.069Z,1.9
2019-06-20T11:56:50.182Z,2.4
2019-06-20T11:58:50.102Z,2.0
2019-06-20T12:01:02.932Z,2.0
2019-06-20T12:02:50.392Z,2.1
2019-06-20T12:04:49.563Z,2.7
2019-06-20T12:06:49.528Z,1.6
2019-06-20T12:08:50.383Z,1.8
2019-06-20T12:10:50.291Z,3.1
2019-06-20T12:12:50.193Z,3.1
2019-06-20T12:14:50.197Z,2.4
2019-06-20T12:16:50.261Z,2.0
2019-06-20T12:18:50.182Z,1.8
2019-06-20T12:20:50.093Z,1.8
2019-06-20T12:22:50.716Z,1.8
2019-06-20T12:24:49.861Z,1.9
2019-06-20T12:26:49.898Z,2.1
2019-06-20T12:28:49.785Z,1.8
2019-06-20T12:30:50.415Z,1.7
2019-06-20T12:32:50.391Z,1.7
2019-06-20T12:34:49.544Z,2.5
2019-06-20T12:36:49.513Z,2.4
2019-06-20T12:38:50.767Z,2.1
2019-06-20T12:40:50.365Z,1.7
2019-06-20T12:42:50.336Z,1.7
2019-06-20T12:44:50.794Z,2.1
2019-06-20T12:46:49.998Z,1.8
2019-06-20T12:48:49.871Z,3.0
2019-06-20T12:50:49.807Z,1.8
2019-06-20T12:52:49.809Z,1.8
2019-06-20T12:54:49.765Z,2.8
2019-06-20T12:56:49.760Z,2.2
2019-06-20T12:58:49.658Z,2.5
2019-06-20T13:00:50.376Z,2.5
2019-06-20T13:02:50.363Z,1.7
2019-06-20T13:04:50.565Z,1.9
2019-06-20T13:06:49.665Z,1.9
2019-06-20T13:08:49.641Z,3.0
2019-06-20T13:10:49.520Z,3.0
2019-06-20T13:12:49.491Z,3.8
2019-06-20T13:14:49.602Z,1.7
2019-06-20T13:16:50.258Z,1.9
2019-06-20T13:18:50.467Z,2.7
2019-06-20T13:20:50.375Z,2.7
2019-06-20T13:22:50.266Z,3.5
2019-06-20T13:24:50.160Z,2.2
2019-06-20T13:26:50.719Z,2.1
2019-06-20T13:29:03.125Z,2.1
2019-06-20T13:30:51.683Z,3.9
2019-06-20T13:32:50.108Z,1.7
2019-06-20T13:34:50.362Z,2.0
2019-06-20T13:36:50.417Z,1.7
2019-06-20T13:38:50.319Z,1.7
2019-06-20T13:40:50.352Z,4.3
2019-06-20T13:42:50.474Z,1.9
2019-06-20T13:44:49.456Z,2.1
2019-06-20T13:46:49.505Z,1.9
2019-06-20T13:48:50.418Z,1.9
2019-06-20T13:50:50.287Z,1.9
2019-06-20T13:52:51.128Z,1.8
2019-06-20T13:54:50.472Z,1.6
2019-06-20T13:56:49.678Z,1.6
2019-06-20T13:58:51.120Z,1.8
2019-06-20T14:00:50.934Z,2.4
2019-06-20T14:02:51.303Z,2.2
2019-06-20T14:04:50.714Z,2.9
2019-06-20T14:06:49.785Z,2.1
2019-06-20T14:08:50.193Z,2.1
2019-06-20T14:10:50.339Z,2.3
2019-06-20T14:12:49.827Z,2.1
2019-06-20T14:14:50.254Z,2.0
2019-06-20T14:16:50.798Z,2.0
2019-06-20T14:18:50.276Z,2.1
2019-06-20T14:20:50.773Z,2.0
2019-06-20T14:22:49.813Z,2.0
2019-06-20T14:24:50.819Z,2.1
2019-06-20T14:26:50.667Z,2.1
2019-06-20T14:28:50.798Z,2.9
2019-06-20T14:30:50.356Z,2.9
2019-06-20T14:32:51.395Z,3.4
2019-06-20T14:34:50.320Z,2.6
2019-06-20T14:36:50.851Z,2.6
2019-06-20T14:38:49.830Z,2.9
2019-06-20T14:40:50.199Z,2.8
2019-06-20T14:42:50.334Z,2.2
2019-06-20T14:44:50.113Z,2.4
2019-06-20T14:46:50.198Z,2.4
2019-06-20T14:48:50.239Z,2.0
2019-06-20T14:50:51.344Z,1.9
2019-06-20T14:52:52.053Z,1.9
2019-06-20T14:54:49.989Z,2.3
2019-06-20T14:56:49.810Z,2.3
2019-06-20T14:58:51.431Z,2.8
2019-06-20T15:00:49.851Z,3.4
2019-06-20T15:02:52.938Z,4.7
2019-06-20T15:04:50.083Z,3.3
2019-06-20T15:06:50.478Z,3.3
2019-06-20T15:08:51.042Z,4.2
2019-06-20T15:10:50.253Z,3.2
2019-06-20T15:12:51.680Z,4.2
2019-06-20T15:14:51.366Z,3.3
2019-06-20T15:16:49.528Z,3.3
2019-06-20T15:18:51.790Z,3.9
2019-06-20T15:20:50.207Z,3.8
2019-06-20T15:22:50.849Z,3.7
2019-06-20T15:24:51.716Z,5.5
2019-06-20T15:26:51.028Z,5.5
2019-06-20T15:28:51.291Z,3.1
2019-06-20T15:30:50.828Z,3.0
2019-06-20T15:32:56.743Z,2.7
2019-06-20T15:34:51.538Z,2.7
2019-06-20T15:36:51.377Z,3.0
2019-06-20T15:38:51.046Z,2.6
2019-06-20T15:40:51.179Z,2.3
2019-06-20T15:42:51.167Z,2.3
2019-06-20T15:44:50.152Z,3.2
2019-06-20T15:46:50.047Z,2.1
2019-06-20T15:48:50.048Z,2.7
2019-06-20T15:50:50.007Z,3.5
2019-06-20T15:52:49.967Z,3.5
2019-06-20T15:54:50.013Z,3.0
2019-06-20T15:56:50.044Z,3.6
2019-06-20T15:58:50.005Z,3.1
2019-06-20T16:00:49.885Z,2.3
2019-06-20T16:02:49.843Z,2.3
2019-06-20T16:04:50.335Z,2.3
2019-06-20T16:06:50.413Z,2.6
2019-06-20T16:08:49.591Z,2.3
2019-06-20T16:10:49.516Z,2.8
2019-06-20T16:12:49.503Z,2.8
2019-06-20T16:14:49.511Z,4.2
2019-06-20T16:16:49.663Z,2.4
2019-06-20T16:18:49.630Z,3.5
2019-06-20T16:20:49.598Z,3.5
2019-06-20T16:22:49.623Z,3.1
2019-06-20T16:24:49.601Z,3.5
2019-06-20T16:26:49.749Z,3.6
2019-06-20T16:28:49.754Z,5.3
2019-06-20T16:30:49.666Z,3.1
2019-06-20T16:32:49.572Z,3.1
2019-06-20T16:34:49.793Z,2.9
2019-06-20T16:36:49.829Z,3.9
2019-06-20T16:38:49.776Z,3.2
2019-06-20T16:40:49.687Z,3.2
2019-06-20T16:42:49.624Z,2.9
2019-06-20T16:44:49.517Z,3.7
2019-06-20T16:46:49.494Z,2.5
2019-06-20T16:48:49.439Z,4.4
2019-06-20T16:50:50.392Z,3.5
2019-06-20T16:52:50.283Z,3.5
2019-06-20T16:54:50.290Z,2.6
2019-06-20T16:56:50.332Z,2.8
2019-06-20T16:58:50.296Z,3.2
2019-06-20T17:00:50.269Z,3.2
2019-06-20T17:02:50.226Z,2.8
2019-06-20T17:04:49.480Z,3.5
2019-06-20T17:06:49.596Z,2.9
2019-06-20T17:08:49.551Z,2.9
2019-06-20T17:10:49.575Z,2.9
2019-06-20T17:12:49.510Z,4.1
2019-06-20T17:14:49.447Z,3.7
2019-06-20T17:16:49.533Z,3.7
2019-06-20T17:18:49.431Z,3.4
2019-06-20T17:20:50.445Z,3.4
2019-06-20T17:22:50.416Z,3.1
2019-06-20T17:24:50.294Z,4.9
2019-06-20T17:26:50.285Z,4.2
2019-06-20T17:28:50.248Z,4.2
2019-06-20T17:30:50.178Z,3.7
2019-06-20T17:32:50.196Z,3.5
2019-06-20T17:34:49.493Z,3.5
2019-06-20T17:36:49.592Z,5.2
2019-06-20T17:38:49.592Z,5.0
2019-06-20T17:40:49.603Z,5.0
2019-06-20T17:42:49.499Z,4.4
2019-06-20T17:44:49.901Z,4.0
2019-06-20T17:46:49.958Z,4.0
2019-06-20T17:48:49.892Z,3.4
2019-06-20T17:50:49.861Z,3.5
2019-06-20T17:52:49.751Z,3.2
2019-06-20T17:54:49.721Z,4.3
2019-06-20T17:56:49.765Z,3.3
2019-06-20T17:58:49.648Z,3.3
2019-06-20T18:00:49.680Z,3.3
2019-06-20T18:02:49.635Z,4.2
2019-06-20T18:04:49.693Z,4.5
2019-06-20T18:06:49.842Z,4.5
2019-06-20T18:08:49.785Z,4.5
2019-06-20T18:10:49.724Z,3.4
2019-06-20T18:12:49.715Z,3.3
2019-06-20T18:14:49.760Z,3.8
2019-06-20T18:16:49.760Z,4.1
2019-06-20T18:18:49.780Z,4.1
2019-06-20T18:20:49.783Z,4.3
2019-06-20T18:22:49.715Z,4.0
2019-06-20T18:24:49.659Z,3.4
2019-06-20T18:26:49.737Z,4.6
2019-06-20T18:28:49.790Z,4.6
2019-06-20T18:30:50.108Z,4.0
2019-06-20T18:32:50.092Z,3.8
2019-06-20T18:35:01.297Z,3.8
2019-06-20T18:36:50.314Z,5.2
2019-06-20T18:38:50.282Z,3.8
2019-06-20T18:40:50.189Z,4.0
2019-06-20T18:42:50.102Z,4.0
2019-06-20T18:44:50.156Z,4.0
2019-06-20T18:46:50.215Z,4.0
2019-06-20T18:48:50.138Z,5.0
2019-06-20T18:50:50.088Z,4.3
2019-06-20T18:52:52.377Z,5.0
2019-06-20T18:54:49.874Z,7.0
2019-06-20T18:56:49.932Z,7.0
2019-06-20T18:58:49.844Z,7.0
2019-06-20T19:00:49.805Z,4.9
2019-06-20T19:02:49.810Z,5.0
2019-06-20T19:04:50.814Z,5.3
2019-06-20T19:06:50.027Z,5.3
2019-06-20T19:08:50.017Z,4.5
2019-06-20T19:10:49.941Z,6.4
2019-06-20T19:12:49.849Z,5.4
2019-06-20T19:14:49.890Z,5.2
2019-06-20T19:16:49.979Z,5.2
2019-06-20T19:18:49.932Z,5.9
2019-06-20T19:20:49.926Z,6.6
2019-06-20T19:22:49.845Z,6.5
2019-06-20T19:24:49.747Z,6.5
2019-06-20T19:26:49.832Z,6.6
2019-06-20T19:28:49.769Z,5.1
2019-06-20T19:30:49.733Z,6.2
2019-06-20T19:32:49.752Z,5.7
2019-06-20T19:35:01.257Z,5.7
2019-06-20T19:36:50.359Z,5.4
2019-06-20T19:38:49.695Z,5.5
2019-06-20T19:40:49.969Z,5.5
2019-06-20T19:42:50.048Z,6.7
2019-06-20T19:44:50.102Z,6.7
2019-06-20T19:46:49.474Z,7.8
2019-06-20T19:48:50.462Z,6.7
2019-06-20T19:50:49.579Z,6.7
2019-06-20T19:52:49.606Z,6.9
2019-06-20T19:54:49.622Z,7.4
2019-06-20T19:56:49.925Z,7.3
2019-06-20T19:58:50.087Z,6.8
2019-06-20T20:00:50.157Z,7.7
2019-06-20T20:02:50.239Z,7.4
2019-06-20T20:04:49.494Z,7.4
2019-06-20T20:06:49.755Z,7.7
2019-06-20T20:08:49.846Z,7.8
2019-06-20T20:10:49.922Z,8.1
2019-06-20T20:12:49.855Z,8.2
2019-06-20T20:14:49.919Z,8.2
2019-06-20T20:16:50.065Z,8.3
2019-06-20T20:18:50.360Z,8.8
2019-06-20T20:20:50.401Z,9.5
2019-06-20T20:22:50.408Z,9.5
2019-06-20T20:24:50.330Z,8.8
2019-06-20T20:26:49.468Z,9.0
2019-06-20T20:28:49.442Z,10.2
2019-06-20T20:30:52.880Z,9.4
2019-06-20T20:32:49.722Z,9.4
2019-06-20T20:34:50.062Z,9.6
2019-06-20T20:36:50.339Z,9.6
2019-06-20T20:38:50.397Z,9.5
2019-06-20T20:40:50.376Z,9.5
2019-06-20T20:42:50.321Z,9.8
2019-06-20T20:44:50.292Z,9.4
2019-06-20T20:46:50.347Z,9.8
2019-06-20T20:48:50.372Z,9.8
2019-06-20T20:50:50.351Z,9.7
2019-06-20T20:52:50.386Z,9.7
2019-06-20T20:54:50.385Z,10.5
2019-06-20T20:56:49.489Z,10.2
2019-06-20T20:58:49.474Z,10.2
2019-06-20T21:00:49.470Z,10.3
2019-06-20T21:02:49.442Z,10.3
2019-06-20T21:04:49.893Z,11.2
2019-06-20T21:06:49.978Z,10.9
2019-06-20T21:08:50.022Z,10.3
2019-06-20T21:10:50.114Z,11.0
2019-06-20T21:12:50.146Z,11.0
2019-06-20T21:14:50.102Z,10.9
2019-06-20T21:16:50.205Z,10.4
2019-06-20T21:18:50.193Z,11.0
2019-06-20T21:20:50.187Z,11.0
2019-06-20T21:22:50.183Z,11.1
2019-06-20T21:24:50.164Z,11.7
2019-06-20T21:26:50.350Z,14.1
2019-06-20T21:28:50.326Z,14.1
2019-06-20T21:30:50.245Z,11.2
2019-06-20T21:32:50.179Z,10.5
2019-06-20T21:34:49.594Z,10.8
2019-06-20T21:36:49.808Z,11.2
2019-06-20T21:38:49.728Z,12.1
2019-06-20T21:40:49.646Z,12.1
2019-06-20T21:42:49.683Z,11.6
2019-06-20T21:44:49.709Z,12.5
2019-06-20T21:46:49.872Z,11.5
2019-06-20T21:48:49.912Z,12.0
2019-06-20T21:50:49.857Z,12.0
2019-06-20T21:52:49.854Z,12.4
2019-06-20T21:54:49.866Z,12.4
2019-06-20T21:56:49.939Z,12.5
2019-06-20T21:58:49.938Z,12.5
2019-06-20T22:00:49.975Z,12.5
2019-06-20T22:02:49.984Z,11.4
2019-06-20T22:04:54.274Z,11.6
2019-06-20T22:06:49.999Z,12.7
2019-06-20T22:08:50.005Z,12.7
2019-06-20T22:10:50.051Z,12.3
2019-06-20T22:12:50.064Z,12.4
2019-06-20T22:14:50.151Z,12.3
2019-06-20T22:16:50.364Z,13.1
2019-06-20T22:18:50.381Z,13.1
2019-06-20T22:20:50.355Z,11.9
2019-06-20T22:22:50.339Z,11.7
2019-06-20T22:24:50.388Z,12.6
2019-06-20T22:26:49.771Z,12.6
2019-06-20T22:28:49.793Z,10.6
2019-06-20T22:30:49.810Z,12.6
2019-06-20T22:32:49.879Z,12.5
2019-06-20T22:34:50.137Z,12.1
2019-06-20T22:36:50.253Z,12.1
2019-06-20T22:38:50.262Z,13.8
2019-06-20T22:40:50.296Z,11.9
2019-06-20T22:42:50.370Z,13.0
2019-06-20T22:44:50.378Z,12.2
2019-06-20T22:46:49.476Z,12.2
2019-06-20T22:48:49.510Z,11.8
2019-06-20T22:50:49.534Z,12.3
2019-06-20T22:52:49.505Z,12.5
2019-06-20T22:54:49.489Z,12.5
2019-06-20T22:56:49.721Z,13.6
2019-06-20T22:58:49.637Z,13.4
2019-06-20T23:00:49.580Z,12.6
2019-06-20T23:02:49.570Z,12.0
2019-06-20T23:04:49.891Z,12.0
2019-06-20T23:06:56.139Z,11.4
2019-06-20T23:08:50.038Z,11.7
2019-06-20T23:10:50.047Z,11.5
2019-06-20T23:12:49.963Z,12.3
2019-06-20T23:14:50.077Z,12.4
2019-06-20T23:16:50.237Z,12.4
2019-06-20T23:18:50.245Z,12.9
2019-06-20T23:21:03.887Z,12.9
2019-06-20T23:22:50.202Z,13.4
2019-06-20T23:24:50.299Z,13.4
2019-06-20T23:26:49.448Z,13.8
2019-06-20T23:28:49.477Z,15.1
2019-06-20T23:30:49.465Z,14.5
2019-06-20T23:32:50.430Z,14.1
2019-06-20T23:34:49.822Z,14.1
2019-06-20T23:36:49.945Z,14.1
2019-06-20T23:38:49.882Z,14.2
2019-06-20T23:40:50.010Z,14.5
2019-06-20T23:42:50.038Z,15.3
2019-06-20T23:44:50.055Z,15.3
2019-06-20T23:46:50.243Z,15.6
2019-06-20T23:48:50.257Z,15.6
2019-06-20T23:50:50.275Z,16.1
2019-06-20T23:52:50.362Z,14.8
2019-06-20T23:54:50.382Z,14.8
2019-06-20T23:56:49.573Z,15.0
2019-06-20T23:58:49.600Z,16.0
